sensor_id;sensor_type;location;lat;lon;timestamp;P1;durP1;ratioP1;P2;durP2;ratioP2
36189;SDS011;22232;50.914;13.858;2023-06-22T00:01:23;8.85;;;7.40;;
36189;SDS011;22232;50.914;13.858;2023-06-22T00:03:50;8.57;;;6.97;;
36189;SDS011;22232;50.914;13.858;2023-06-22T00:06:18;8.40;;;7.45;;
36189;SDS011;22232;50.914;13.858;2023-06-22T00:08:46;11.70;;;7.60;;
36189;SDS011;22232;50.914;13.858;2023-06-22T00:11:14;8.93;;;7.18;;
36189;SDS011;22232;50.914;13.858;2023-06-22T00:13:42;9.95;;;7.53;;
36189;SDS011;22232;50.914;13.858;2023-06-22T00:16:09;9.55;;;7.32;;
36189;SDS011;22232;50.914;13.858;2023-06-22T00:18:37;7.53;;;6.53;;
36189;SDS011;22232;50.914;13.858;2023-06-22T00:21:05;8.70;;;6.88;;
36189;SDS011;22232;50.914;13.858;2023-06-22T00:23:33;12.07;;;7.75;;
36189;SDS011;22232;50.914;13.858;2023-06-22T00:26:02;9.43;;;6.90;;
36189;SDS011;22232;50.914;13.858;2023-06-22T00:28:29;8.32;;;7.22;;
36189;SDS011;22232;50.914;13.858;2023-06-22T00:30:57;8.70;;;6.32;;
36189;SDS011;22232;50.914;13.858;2023-06-22T00:33:25;10.25;;;7.10;;
36189;SDS011;22232;50.914;13.858;2023-06-22T00:35:53;9.95;;;7.65;;
36189;SDS011;22232;50.914;13.858;2023-06-22T00:38:21;9.95;;;7.15;;
36189;SDS011;22232;50.914;13.858;2023-06-22T00:40:49;8.18;;;6.95;;
36189;SDS011;22232;50.914;13.858;2023-06-22T00:43:16;7.78;;;6.97;;
36189;SDS011;22232;50.914;13.858;2023-06-22T00:45:44;9.40;;;7.80;;
36189;SDS011;22232;50.914;13.858;2023-06-22T00:48:12;8.65;;;6.68;;
36189;SDS011;22232;50.914;13.858;2023-06-22T00:50:41;8.77;;;7.05;;
36189;SDS011;22232;50.914;13.858;2023-06-22T00:53:09;11.63;;;7.75;;
36189;SDS011;22232;50.914;13.858;2023-06-22T00:55:41;7.35;;;6.47;;
36189;SDS011;22232;50.914;13.858;2023-06-22T00:58:19;8.68;;;7.03;;
36189;SDS011;22232;50.914;13.858;2023-06-22T01:00:49;8.55;;;7.30;;
36189;SDS011;22232;50.914;13.858;2023-06-22T01:03:17;8.00;;;6.55;;
36189;SDS011;22232;50.914;13.858;2023-06-22T01:05:46;8.32;;;7.07;;
36189;SDS011;22232;50.914;13.858;2023-06-22T01:16:20;6.88;;;6.13;;
36189;SDS011;22232;50.914;13.858;2023-06-22T01:18:53;8.73;;;7.07;;
36189;SDS011;22232;50.914;13.858;2023-06-22T01:21:28;8.02;;;7.10;;
36189;SDS011;22232;50.914;13.858;2023-06-22T01:26:41;7.53;;;6.38;;
36189;SDS011;22232;50.914;13.858;2023-06-22T01:29:14;8.13;;;6.82;;
36189;SDS011;22232;50.914;13.858;2023-06-22T01:31:43;8.70;;;6.90;;
36189;SDS011;22232;50.914;13.858;2023-06-22T01:34:12;7.90;;;7.10;;
36189;SDS011;22232;50.914;13.858;2023-06-22T01:36:42;7.70;;;6.90;;
36189;SDS011;22232;50.914;13.858;2023-06-22T01:39:10;8.70;;;6.70;;
36189;SDS011;22232;50.914;13.858;2023-06-22T01:41:39;7.85;;;6.57;;
36189;SDS011;22232;50.914;13.858;2023-06-22T01:44:09;7.70;;;6.75;;
36189;SDS011;22232;50.914;13.858;2023-06-22T01:46:36;8.82;;;7.03;;
36189;SDS011;22232;50.914;13.858;2023-06-22T01:49:06;9.30;;;7.30;;
36189;SDS011;22232;50.914;13.858;2023-06-22T01:51:36;8.18;;;6.97;;
36189;SDS011;22232;50.914;13.858;2023-06-22T01:54:05;10.65;;;8.30;;
36189;SDS011;22232;50.914;13.858;2023-06-22T01:56:33;9.55;;;7.65;;
36189;SDS011;22232;50.914;13.858;2023-06-22T01:59:08;10.00;;;7.43;;
36189;SDS011;22232;50.914;13.858;2023-06-22T02:02:02;8.32;;;6.65;;
36189;SDS011;22232;50.914;13.858;2023-06-22T02:04:34;9.02;;;7.55;;
36189;SDS011;22232;50.914;13.858;2023-06-22T02:07:09;8.67;;;7.10;;
36189;SDS011;22232;50.914;13.858;2023-06-22T02:09:40;8.98;;;7.32;;
36189;SDS011;22232;50.914;13.858;2023-06-22T02:12:11;9.43;;;7.28;;
36189;SDS011;22232;50.914;13.858;2023-06-22T02:14:41;10.55;;;7.47;;
36189;SDS011;22232;50.914;13.858;2023-06-22T02:17:09;10.70;;;7.80;;
36189;SDS011;22232;50.914;13.858;2023-06-22T02:19:37;9.95;;;7.53;;
36189;SDS011;22232;50.914;13.858;2023-06-22T02:22:06;8.07;;;6.88;;
36189;SDS011;22232;50.914;13.858;2023-06-22T02:24:33;8.63;;;7.28;;
36189;SDS011;22232;50.914;13.858;2023-06-22T02:27:01;8.90;;;6.85;;
36189;SDS011;22232;50.914;13.858;2023-06-22T02:29:32;9.70;;;6.70;;
36189;SDS011;22232;50.914;13.858;2023-06-22T02:31:59;8.20;;;6.80;;
36189;SDS011;22232;50.914;13.858;2023-06-22T02:34:27;8.27;;;6.35;;
36189;SDS011;22232;50.914;13.858;2023-06-22T02:36:55;7.25;;;6.18;;
36189;SDS011;22232;50.914;13.858;2023-06-22T02:39:23;9.63;;;6.75;;
36189;SDS011;22232;50.914;13.858;2023-06-22T02:41:52;8.02;;;7.20;;
36189;SDS011;22232;50.914;13.858;2023-06-22T02:44:22;8.55;;;6.93;;
36189;SDS011;22232;50.914;13.858;2023-06-22T02:46:49;9.43;;;7.18;;
36189;SDS011;22232;50.914;13.858;2023-06-22T02:49:17;7.38;;;6.55;;
36189;SDS011;22232;50.914;13.858;2023-06-22T02:51:46;10.20;;;6.97;;
36189;SDS011;22232;50.914;13.858;2023-06-22T02:54:18;9.65;;;6.93;;
36189;SDS011;22232;50.914;13.858;2023-06-22T02:56:49;8.93;;;7.50;;
36189;SDS011;22232;50.914;13.858;2023-06-22T02:59:19;7.95;;;6.75;;
36189;SDS011;22232;50.914;13.858;2023-06-22T03:01:56;8.38;;;6.57;;
36189;SDS011;22232;50.914;13.858;2023-06-22T03:04:28;9.32;;;6.72;;
36189;SDS011;22232;50.914;13.858;2023-06-22T03:06:56;7.90;;;6.65;;
36189;SDS011;22232;50.914;13.858;2023-06-22T03:09:24;11.43;;;7.82;;
36189;SDS011;22232;50.914;13.858;2023-06-22T03:11:52;10.02;;;7.90;;
36189;SDS011;22232;50.914;13.858;2023-06-22T03:14:21;10.38;;;8.18;;
36189;SDS011;22232;50.914;13.858;2023-06-22T03:16:51;9.65;;;7.25;;
36189;SDS011;22232;50.914;13.858;2023-06-22T03:19:19;9.23;;;6.75;;
36189;SDS011;22232;50.914;13.858;2023-06-22T03:21:48;9.45;;;7.32;;
36189;SDS011;22232;50.914;13.858;2023-06-22T03:24:16;9.05;;;6.93;;
36189;SDS011;22232;50.914;13.858;2023-06-22T03:26:43;9.05;;;7.30;;
36189;SDS011;22232;50.914;13.858;2023-06-22T03:29:13;10.43;;;6.72;;
36189;SDS011;22232;50.914;13.858;2023-06-22T03:31:42;8.23;;;6.60;;
36189;SDS011;22232;50.914;13.858;2023-06-22T03:34:10;9.73;;;7.10;;
36189;SDS011;22232;50.914;13.858;2023-06-22T03:36:38;9.60;;;6.68;;
36189;SDS011;22232;50.914;13.858;2023-06-22T03:39:06;7.30;;;6.57;;
36189;SDS011;22232;50.914;13.858;2023-06-22T03:41:34;10.70;;;6.70;;
36189;SDS011;22232;50.914;13.858;2023-06-22T03:44:01;10.65;;;6.65;;
36189;SDS011;22232;50.914;13.858;2023-06-22T03:46:29;10.70;;;6.80;;
36189;SDS011;22232;50.914;13.858;2023-06-22T03:48:56;10.38;;;7.35;;
36189;SDS011;22232;50.914;13.858;2023-06-22T03:51:24;10.98;;;8.48;;
36189;SDS011;22232;50.914;13.858;2023-06-22T03:53:51;13.02;;;9.30;;
36189;SDS011;22232;50.914;13.858;2023-06-22T03:56:19;13.15;;;8.65;;
36189;SDS011;22232;50.914;13.858;2023-06-22T03:58:48;11.65;;;8.57;;
36189;SDS011;22232;50.914;13.858;2023-06-22T04:01:15;12.48;;;8.57;;
36189;SDS011;22232;50.914;13.858;2023-06-22T04:03:44;10.50;;;7.82;;
36189;SDS011;22232;50.914;13.858;2023-06-22T04:06:12;8.93;;;6.75;;
36189;SDS011;22232;50.914;13.858;2023-06-22T04:08:39;11.57;;;7.25;;
36189;SDS011;22232;50.914;13.858;2023-06-22T04:11:08;10.52;;;7.50;;
36189;SDS011;22232;50.914;13.858;2023-06-22T04:13:35;10.48;;;7.60;;
36189;SDS011;22232;50.914;13.858;2023-06-22T04:16:03;11.85;;;7.07;;
36189;SDS011;22232;50.914;13.858;2023-06-22T04:18:31;8.55;;;6.80;;
36189;SDS011;22232;50.914;13.858;2023-06-22T04:20:59;10.00;;;7.22;;
36189;SDS011;22232;50.914;13.858;2023-06-22T04:23:26;9.38;;;7.22;;
36189;SDS011;22232;50.914;13.858;2023-06-22T04:25:54;8.55;;;6.72;;
36189;SDS011;22232;50.914;13.858;2023-06-22T04:28:23;7.13;;;6.38;;
36189;SDS011;22232;50.914;13.858;2023-06-22T04:30:54;8.48;;;6.45;;
36189;SDS011;22232;50.914;13.858;2023-06-22T04:33:25;8.95;;;6.93;;
36189;SDS011;22232;50.914;13.858;2023-06-22T04:35:53;8.48;;;7.35;;
36189;SDS011;22232;50.914;13.858;2023-06-22T04:38:20;8.10;;;6.50;;
36189;SDS011;22232;50.914;13.858;2023-06-22T04:40:49;8.18;;;6.57;;
36189;SDS011;22232;50.914;13.858;2023-06-22T04:43:17;10.10;;;7.00;;
36189;SDS011;22232;50.914;13.858;2023-06-22T04:45:44;7.68;;;6.88;;
36189;SDS011;22232;50.914;13.858;2023-06-22T04:48:12;9.38;;;6.68;;
36189;SDS011;22232;50.914;13.858;2023-06-22T04:50:43;7.32;;;6.30;;
36189;SDS011;22232;50.914;13.858;2023-06-22T04:53:11;7.20;;;6.15;;
36189;SDS011;22232;50.914;13.858;2023-06-22T04:55:40;7.25;;;5.85;;
36189;SDS011;22232;50.914;13.858;2023-06-22T04:58:08;6.93;;;6.18;;
36189;SDS011;22232;50.914;13.858;2023-06-22T05:00:36;9.27;;;6.45;;
36189;SDS011;22232;50.914;13.858;2023-06-22T05:03:04;7.57;;;6.38;;
36189;SDS011;22232;50.914;13.858;2023-06-22T05:05:46;8.13;;;7.22;;
36189;SDS011;22232;50.914;13.858;2023-06-22T05:08:14;7.63;;;6.70;;
36189;SDS011;22232;50.914;13.858;2023-06-22T05:10:42;8.10;;;7.28;;
36189;SDS011;22232;50.914;13.858;2023-06-22T05:13:29;9.45;;;6.50;;
36189;SDS011;22232;50.914;13.858;2023-06-22T05:15:57;8.32;;;6.60;;
36189;SDS011;22232;50.914;13.858;2023-06-22T05:18:31;7.60;;;6.82;;
36189;SDS011;22232;50.914;13.858;2023-06-22T05:21:00;8.13;;;6.90;;
36189;SDS011;22232;50.914;13.858;2023-06-22T05:23:27;8.98;;;6.90;;
36189;SDS011;22232;50.914;13.858;2023-06-22T05:25:55;7.90;;;6.35;;
36189;SDS011;22232;50.914;13.858;2023-06-22T05:28:25;7.60;;;6.82;;
36189;SDS011;22232;50.914;13.858;2023-06-22T05:30:53;10.63;;;6.82;;
36189;SDS011;22232;50.914;13.858;2023-06-22T05:33:20;7.78;;;6.35;;
36189;SDS011;22232;50.914;13.858;2023-06-22T05:35:48;7.38;;;6.57;;
36189;SDS011;22232;50.914;13.858;2023-06-22T05:38:15;7.75;;;6.57;;
36189;SDS011;22232;50.914;13.858;2023-06-22T05:40:43;10.00;;;6.85;;
36189;SDS011;22232;50.914;13.858;2023-06-22T05:45:45;7.28;;;6.38;;
36189;SDS011;22232;50.914;13.858;2023-06-22T05:48:13;13.55;;;7.45;;
36189;SDS011;22232;50.914;13.858;2023-06-22T05:50:41;9.00;;;6.93;;
36189;SDS011;22232;50.914;13.858;2023-06-22T05:53:09;9.95;;;7.70;;
36189;SDS011;22232;50.914;13.858;2023-06-22T05:55:37;8.48;;;7.57;;
36189;SDS011;22232;50.914;13.858;2023-06-22T05:58:04;8.57;;;7.45;;
36189;SDS011;22232;50.914;13.858;2023-06-22T06:00:32;11.05;;;8.18;;
36189;SDS011;22232;50.914;13.858;2023-06-22T06:03:00;9.98;;;7.82;;
36189;SDS011;22232;50.914;13.858;2023-06-22T06:05:31;11.63;;;8.27;;
36189;SDS011;22232;50.914;13.858;2023-06-22T06:08:00;11.32;;;8.50;;
36189;SDS011;22232;50.914;13.858;2023-06-22T06:10:28;8.60;;;7.13;;
36189;SDS011;22232;50.914;13.858;2023-06-22T06:13:00;9.77;;;8.23;;
36189;SDS011;22232;50.914;13.858;2023-06-22T06:15:29;10.90;;;8.68;;
36189;SDS011;22232;50.914;13.858;2023-06-22T06:17:58;11.95;;;7.90;;
36189;SDS011;22232;50.914;13.858;2023-06-22T06:20:26;10.18;;;8.35;;
36189;SDS011;22232;50.914;13.858;2023-06-22T06:22:57;10.80;;;8.32;;
36189;SDS011;22232;50.914;13.858;2023-06-22T06:25:25;12.65;;;8.82;;
36189;SDS011;22232;50.914;13.858;2023-06-22T06:27:53;9.57;;;8.13;;
36189;SDS011;22232;50.914;13.858;2023-06-22T06:30:21;12.50;;;7.95;;
36189;SDS011;22232;50.914;13.858;2023-06-22T06:32:50;11.57;;;8.70;;
36189;SDS011;22232;50.914;13.858;2023-06-22T06:35:18;13.02;;;7.97;;
36189;SDS011;22232;50.914;13.858;2023-06-22T06:37:47;13.55;;;8.05;;
36189;SDS011;22232;50.914;13.858;2023-06-22T06:40:16;12.77;;;8.27;;
36189;SDS011;22232;50.914;13.858;2023-06-22T06:42:45;13.52;;;9.63;;
36189;SDS011;22232;50.914;13.858;2023-06-22T06:45:18;12.63;;;10.02;;
36189;SDS011;22232;50.914;13.858;2023-06-22T06:47:47;14.68;;;9.30;;
36189;SDS011;22232;50.914;13.858;2023-06-22T06:50:15;13.50;;;8.93;;
36189;SDS011;22232;50.914;13.858;2023-06-22T06:52:43;13.65;;;9.63;;
36189;SDS011;22232;50.914;13.858;2023-06-22T06:55:11;13.63;;;10.25;;
36189;SDS011;22232;50.914;13.858;2023-06-22T06:57:39;14.00;;;9.13;;
36189;SDS011;22232;50.914;13.858;2023-06-22T07:00:10;11.40;;;9.73;;
36189;SDS011;22232;50.914;13.858;2023-06-22T07:02:41;14.32;;;9.98;;
36189;SDS011;22232;50.914;13.858;2023-06-22T07:05:11;11.90;;;8.77;;
36189;SDS011;22232;50.914;13.858;2023-06-22T07:07:40;14.23;;;9.25;;
36189;SDS011;22232;50.914;13.858;2023-06-22T07:10:09;12.55;;;9.35;;
36189;SDS011;22232;50.914;13.858;2023-06-22T07:12:37;12.68;;;9.40;;
36189;SDS011;22232;50.914;13.858;2023-06-22T07:15:05;12.38;;;9.32;;
36189;SDS011;22232;50.914;13.858;2023-06-22T07:17:37;15.30;;;9.85;;
36189;SDS011;22232;50.914;13.858;2023-06-22T07:20:04;13.93;;;9.23;;
36189;SDS011;22232;50.914;13.858;2023-06-22T07:22:37;12.25;;;9.07;;
36189;SDS011;22232;50.914;13.858;2023-06-22T07:25:06;12.02;;;8.73;;
36189;SDS011;22232;50.914;13.858;2023-06-22T07:28:25;12.77;;;9.35;;
36189;SDS011;22232;50.914;13.858;2023-06-22T07:30:34;11.07;;;9.88;;
36189;SDS011;22232;50.914;13.858;2023-06-22T07:33:02;16.42;;;10.25;;
36189;SDS011;22232;50.914;13.858;2023-06-22T07:35:36;10.93;;;9.73;;
36189;SDS011;22232;50.914;13.858;2023-06-22T07:38:03;10.88;;;9.70;;
36189;SDS011;22232;50.914;13.858;2023-06-22T07:40:32;12.82;;;9.18;;
36189;SDS011;22232;50.914;13.858;2023-06-22T07:43:01;10.43;;;9.32;;
36189;SDS011;22232;50.914;13.858;2023-06-22T07:45:29;11.05;;;9.43;;
36189;SDS011;22232;50.914;13.858;2023-06-22T07:47:57;12.18;;;9.38;;
36189;SDS011;22232;50.914;13.858;2023-06-22T07:50:24;11.93;;;10.52;;
36189;SDS011;22232;50.914;13.858;2023-06-22T07:52:52;12.40;;;10.13;;
36189;SDS011;22232;50.914;13.858;2023-06-22T07:55:20;14.07;;;10.10;;
36189;SDS011;22232;50.914;13.858;2023-06-22T07:57:48;12.68;;;10.93;;
36189;SDS011;22232;50.914;13.858;2023-06-22T08:00:19;12.55;;;10.23;;
36189;SDS011;22232;50.914;13.858;2023-06-22T08:02:47;12.93;;;9.65;;
36189;SDS011;22232;50.914;13.858;2023-06-22T08:05:15;13.18;;;10.40;;
36189;SDS011;22232;50.914;13.858;2023-06-22T08:08:01;11.48;;;9.68;;
36189;SDS011;22232;50.914;13.858;2023-06-22T08:10:29;11.80;;;9.93;;
36189;SDS011;22232;50.914;13.858;2023-06-22T08:12:56;13.93;;;9.40;;
36189;SDS011;22232;50.914;13.858;2023-06-22T08:15:25;12.63;;;10.40;;
36189;SDS011;22232;50.914;13.858;2023-06-22T08:17:54;14.70;;;10.85;;
36189;SDS011;22232;50.914;13.858;2023-06-22T08:20:22;12.18;;;10.45;;
36189;SDS011;22232;50.914;13.858;2023-06-22T08:22:50;9.90;;;8.82;;
36189;SDS011;22232;50.914;13.858;2023-06-22T08:25:17;10.45;;;8.93;;
36189;SDS011;22232;50.914;13.858;2023-06-22T08:27:45;9.90;;;8.88;;
36189;SDS011;22232;50.914;13.858;2023-06-22T08:30:17;12.55;;;8.27;;
36189;SDS011;22232;50.914;13.858;2023-06-22T08:32:45;8.77;;;7.85;;
36189;SDS011;22232;50.914;13.858;2023-06-22T08:35:13;10.05;;;8.88;;
36189;SDS011;22232;50.914;13.858;2023-06-22T08:37:41;10.95;;;8.15;;
36189;SDS011;22232;50.914;13.858;2023-06-22T08:40:09;9.98;;;8.82;;
36189;SDS011;22232;50.914;13.858;2023-06-22T08:42:39;12.55;;;8.55;;
36189;SDS011;22232;50.914;13.858;2023-06-22T08:45:09;10.88;;;9.38;;
36189;SDS011;22232;50.914;13.858;2023-06-22T08:47:37;9.48;;;8.43;;
36189;SDS011;22232;50.914;13.858;2023-06-22T08:50:05;10.07;;;8.70;;
36189;SDS011;22232;50.914;13.858;2023-06-22T08:52:35;10.70;;;9.02;;
36189;SDS011;22232;50.914;13.858;2023-06-22T08:55:03;12.18;;;9.10;;
36189;SDS011;22232;50.914;13.858;2023-06-22T08:57:31;10.93;;;8.85;;
36189;SDS011;22232;50.914;13.858;2023-06-22T08:59:59;15.48;;;8.50;;
36189;SDS011;22232;50.914;13.858;2023-06-22T09:02:27;11.93;;;8.82;;
36189;SDS011;22232;50.914;13.858;2023-06-22T09:04:59;9.05;;;7.63;;
36189;SDS011;22232;50.914;13.858;2023-06-22T09:07:27;11.77;;;8.70;;
36189;SDS011;22232;50.914;13.858;2023-06-22T09:09:55;9.88;;;8.50;;
36189;SDS011;22232;50.914;13.858;2023-06-22T09:12:23;12.80;;;9.02;;
36189;SDS011;22232;50.914;13.858;2023-06-22T09:14:53;13.23;;;8.15;;
36189;SDS011;22232;50.914;13.858;2023-06-22T09:17:21;9.65;;;7.95;;
36189;SDS011;22232;50.914;13.858;2023-06-22T09:19:49;10.20;;;8.50;;
36189;SDS011;22232;50.914;13.858;2023-06-22T09:22:17;13.73;;;8.40;;
36189;SDS011;22232;50.914;13.858;2023-06-22T09:24:45;12.68;;;7.72;;
36189;SDS011;22232;50.914;13.858;2023-06-22T09:27:12;9.48;;;8.40;;
36189;SDS011;22232;50.914;13.858;2023-06-22T09:29:40;12.13;;;8.38;;
36189;SDS011;22232;50.914;13.858;2023-06-22T09:32:08;9.55;;;7.70;;
36189;SDS011;22232;50.914;13.858;2023-06-22T09:34:36;12.80;;;8.48;;
36189;SDS011;22232;50.914;13.858;2023-06-22T09:37:03;9.60;;;8.60;;
36189;SDS011;22232;50.914;13.858;2023-06-22T09:39:31;16.63;;;9.35;;
36189;SDS011;22232;50.914;13.858;2023-06-22T09:41:59;10.10;;;8.00;;
36189;SDS011;22232;50.914;13.858;2023-06-22T09:44:27;9.40;;;8.50;;
36189;SDS011;22232;50.914;13.858;2023-06-22T09:46:55;10.32;;;8.75;;
36189;SDS011;22232;50.914;13.858;2023-06-22T09:49:22;10.68;;;8.82;;
36189;SDS011;22232;50.914;13.858;2023-06-22T09:52:08;9.48;;;8.48;;
36189;SDS011;22232;50.914;13.858;2023-06-22T09:54:35;10.80;;;8.95;;
36189;SDS011;22232;50.914;13.858;2023-06-22T09:57:03;9.63;;;8.63;;
36189;SDS011;22232;50.914;13.858;2023-06-22T09:59:30;10.70;;;9.00;;
36189;SDS011;22232;50.914;13.858;2023-06-22T10:01:58;11.73;;;8.90;;
36189;SDS011;22232;50.914;13.858;2023-06-22T10:04:26;9.60;;;8.60;;
36189;SDS011;22232;50.914;13.858;2023-06-22T10:06:54;9.88;;;8.63;;
36189;SDS011;22232;50.914;13.858;2023-06-22T10:09:21;9.55;;;8.60;;
36189;SDS011;22232;50.914;13.858;2023-06-22T10:11:50;10.10;;;8.70;;
36189;SDS011;22232;50.914;13.858;2023-06-22T10:14:18;11.52;;;8.77;;
36189;SDS011;22232;50.914;13.858;2023-06-22T10:16:46;10.18;;;8.70;;
36189;SDS011;22232;50.914;13.858;2023-06-22T10:19:13;10.73;;;8.88;;
36189;SDS011;22232;50.914;13.858;2023-06-22T10:21:41;11.70;;;8.88;;
36189;SDS011;22232;50.914;13.858;2023-06-22T10:24:09;9.98;;;8.90;;
36189;SDS011;22232;50.914;13.858;2023-06-22T10:26:36;10.25;;;9.02;;
36189;SDS011;22232;50.914;13.858;2023-06-22T11:21:23;10.73;;;9.27;;
36189;SDS011;22232;50.914;13.858;2023-06-22T11:23:51;10.45;;;8.55;;
36189;SDS011;22232;50.914;13.858;2023-06-22T11:26:18;9.93;;;8.85;;
36189;SDS011;22232;50.914;13.858;2023-06-22T11:28:46;20.77;;;8.52;;
36189;SDS011;22232;50.914;13.858;2023-06-22T11:31:14;10.30;;;7.90;;
36189;SDS011;22232;50.914;13.858;2023-06-22T11:33:53;10.68;;;9.15;;
36189;SDS011;22232;50.914;13.858;2023-06-22T11:36:20;13.95;;;9.27;;
36189;SDS011;22232;50.914;13.858;2023-06-22T11:38:48;10.55;;;8.80;;
36189;SDS011;22232;50.914;13.858;2023-06-22T11:41:16;10.57;;;8.55;;
36189;SDS011;22232;50.914;13.858;2023-06-22T11:43:44;13.50;;;10.20;;
36189;SDS011;22232;50.914;13.858;2023-06-22T11:46:11;9.35;;;8.32;;
36189;SDS011;22232;50.914;13.858;2023-06-22T11:48:39;9.10;;;8.20;;
36189;SDS011;22232;50.914;13.858;2023-06-22T11:51:07;9.40;;;8.00;;
36189;SDS011;22232;50.914;13.858;2023-06-22T11:53:35;8.68;;;7.85;;
36189;SDS011;22232;50.914;13.858;2023-06-22T11:56:03;9.52;;;8.27;;
36189;SDS011;22232;50.914;13.858;2023-06-22T11:58:30;10.23;;;8.48;;
36189;SDS011;22232;50.914;13.858;2023-06-22T12:00:58;9.20;;;8.30;;
36189;SDS011;22232;50.914;13.858;2023-06-22T12:03:25;8.90;;;8.00;;
36189;SDS011;22232;50.914;13.858;2023-06-22T12:05:53;9.75;;;8.13;;
36189;SDS011;22232;50.914;13.858;2023-06-22T12:08:21;11.82;;;8.95;;
36189;SDS011;22232;50.914;13.858;2023-06-22T12:10:49;10.40;;;8.73;;
36189;SDS011;22232;50.914;13.858;2023-06-22T12:13:17;9.82;;;8.75;;
36189;SDS011;22232;50.914;13.858;2023-06-22T12:15:45;36.38;;;9.60;;
36189;SDS011;22232;50.914;13.858;2023-06-22T12:18:12;10.38;;;8.05;;
36189;SDS011;22232;50.914;13.858;2023-06-22T12:20:42;10.23;;;8.38;;
36189;SDS011;22232;50.914;13.858;2023-06-22T12:23:09;8.93;;;7.45;;
36189;SDS011;22232;50.914;13.858;2023-06-22T12:25:37;10.93;;;8.45;;
36189;SDS011;22232;50.914;13.858;2023-06-22T12:28:05;10.77;;;8.82;;
36189;SDS011;22232;50.914;13.858;2023-06-22T12:30:33;9.32;;;8.40;;
36189;SDS011;22232;50.914;13.858;2023-06-22T12:33:00;11.95;;;8.88;;
36189;SDS011;22232;50.914;13.858;2023-06-22T12:35:28;10.50;;;8.48;;
36189;SDS011;22232;50.914;13.858;2023-06-22T12:37:56;9.13;;;8.18;;
36189;SDS011;22232;50.914;13.858;2023-06-22T12:40:24;9.27;;;8.23;;
36189;SDS011;22232;50.914;13.858;2023-06-22T12:42:51;11.02;;;8.05;;
36189;SDS011;22232;50.914;13.858;2023-06-22T12:45:19;9.32;;;8.43;;
36189;SDS011;22232;50.914;13.858;2023-06-22T12:47:48;9.95;;;8.10;;
36189;SDS011;22232;50.914;13.858;2023-06-22T12:50:17;10.50;;;7.82;;
36189;SDS011;22232;50.914;13.858;2023-06-22T12:52:44;11.80;;;8.15;;
36189;SDS011;22232;50.914;13.858;2023-06-22T12:55:12;9.75;;;8.05;;
36189;SDS011;22232;50.914;13.858;2023-06-22T12:57:40;12.50;;;8.38;;
36189;SDS011;22232;50.914;13.858;2023-06-22T13:00:08;8.65;;;7.68;;
36189;SDS011;22232;50.914;13.858;2023-06-22T13:02:37;8.75;;;7.28;;
36189;SDS011;22232;50.914;13.858;2023-06-22T13:05:05;8.73;;;7.75;;
36189;SDS011;22232;50.914;13.858;2023-06-22T13:07:33;8.25;;;7.32;;
36189;SDS011;22232;50.914;13.858;2023-06-22T13:10:00;10.23;;;7.53;;
36189;SDS011;22232;50.914;13.858;2023-06-22T13:12:28;11.57;;;8.68;;
36189;SDS011;22232;50.914;13.858;2023-06-22T13:14:56;9.95;;;8.13;;
36189;SDS011;22232;50.914;13.858;2023-06-22T13:17:23;11.48;;;7.97;;
36189;SDS011;22232;50.914;13.858;2023-06-22T13:19:51;9.73;;;8.70;;
36189;SDS011;22232;50.914;13.858;2023-06-22T13:22:31;9.43;;;8.45;;
36189;SDS011;22232;50.914;13.858;2023-06-22T13:25:01;11.02;;;7.65;;
36189;SDS011;22232;50.914;13.858;2023-06-22T13:27:29;10.52;;;8.68;;
36189;SDS011;22232;50.914;13.858;2023-06-22T13:29:56;9.13;;;7.80;;
36189;SDS011;22232;50.914;13.858;2023-06-22T13:32:24;8.77;;;7.70;;
36189;SDS011;22232;50.914;13.858;2023-06-22T13:34:52;9.38;;;7.95;;
36189;SDS011;22232;50.914;13.858;2023-06-22T13:37:21;10.90;;;7.72;;
36189;SDS011;22232;50.914;13.858;2023-06-22T13:39:48;12.70;;;8.27;;
36189;SDS011;22232;50.914;13.858;2023-06-22T13:42:16;10.23;;;8.25;;
36189;SDS011;22232;50.914;13.858;2023-06-22T13:44:43;9.15;;;7.45;;
36189;SDS011;22232;50.914;13.858;2023-06-22T13:47:11;9.27;;;8.30;;
36189;SDS011;22232;50.914;13.858;2023-06-22T13:53:52;8.60;;;7.70;;
36189;SDS011;22232;50.914;13.858;2023-06-22T13:56:20;7.95;;;7.15;;
36189;SDS011;22232;50.914;13.858;2023-06-22T13:58:48;8.10;;;7.30;;
36189;SDS011;22232;50.914;13.858;2023-06-22T14:01:16;8.40;;;7.50;;
36189;SDS011;22232;50.914;13.858;2023-06-22T14:03:44;8.18;;;7.30;;
36189;SDS011;22232;50.914;13.858;2023-06-22T14:06:13;8.55;;;7.10;;
36189;SDS011;22232;50.914;13.858;2023-06-22T14:08:41;8.73;;;7.82;;
36189;SDS011;22232;50.914;13.858;2023-06-22T14:11:09;20.40;;;8.85;;
36189;SDS011;22232;50.914;13.858;2023-06-22T14:13:37;8.75;;;7.40;;
36189;SDS011;22232;50.914;13.858;2023-06-22T14:16:04;9.02;;;7.25;;
36189;SDS011;22232;50.914;13.858;2023-06-22T14:18:33;11.70;;;7.65;;
36189;SDS011;22232;50.914;13.858;2023-06-22T14:21:00;10.27;;;7.55;;
36189;SDS011;22232;50.914;13.858;2023-06-22T14:23:28;8.57;;;7.18;;
36189;SDS011;22232;50.914;13.858;2023-06-22T14:25:55;8.75;;;7.82;;
36189;SDS011;22232;50.914;13.858;2023-06-22T14:28:23;8.45;;;7.55;;
36189;SDS011;22232;50.914;13.858;2023-06-22T14:30:51;9.38;;;6.95;;
36189;SDS011;22232;50.914;13.858;2023-06-22T14:33:18;9.95;;;7.40;;
36189;SDS011;22232;50.914;13.858;2023-06-22T14:35:46;9.18;;;7.28;;
36189;SDS011;22232;50.914;13.858;2023-06-22T14:38:14;8.63;;;7.82;;
36189;SDS011;22232;50.914;13.858;2023-06-22T14:40:42;8.80;;;7.40;;
36189;SDS011;22232;50.914;13.858;2023-06-22T14:43:29;8.13;;;7.32;;
36189;SDS011;22232;50.914;13.858;2023-06-22T14:45:57;10.30;;;7.40;;
36189;SDS011;22232;50.914;13.858;2023-06-22T14:48:25;8.75;;;7.70;;
36189;SDS011;22232;50.914;13.858;2023-06-22T14:50:54;9.23;;;6.82;;
36189;SDS011;22232;50.914;13.858;2023-06-22T14:53:21;8.15;;;7.35;;
36189;SDS011;22232;50.914;13.858;2023-06-22T14:55:50;9.80;;;7.22;;
36189;SDS011;22232;50.914;13.858;2023-06-22T14:58:18;7.95;;;7.15;;
36189;SDS011;22232;50.914;13.858;2023-06-22T15:00:45;10.07;;;7.20;;
36189;SDS011;22232;50.914;13.858;2023-06-22T15:03:13;8.73;;;7.80;;
36189;SDS011;22232;50.914;13.858;2023-06-22T15:05:45;14.57;;;8.02;;
36189;SDS011;22232;50.914;13.858;2023-06-22T15:08:13;10.35;;;7.65;;
36189;SDS011;22232;50.914;13.858;2023-06-22T15:10:40;8.40;;;7.57;;
36189;SDS011;22232;50.914;13.858;2023-06-22T15:13:08;8.60;;;7.70;;
36189;SDS011;22232;50.914;13.858;2023-06-22T15:15:35;8.88;;;6.97;;
36189;SDS011;22232;50.914;13.858;2023-06-22T15:18:03;11.05;;;8.00;;
36189;SDS011;22232;50.914;13.858;2023-06-22T15:20:31;8.93;;;7.60;;
36189;SDS011;22232;50.914;13.858;2023-06-22T15:22:59;8.52;;;7.13;;
36189;SDS011;22232;50.914;13.858;2023-06-22T15:25:27;8.43;;;7.63;;
36189;SDS011;22232;50.914;13.858;2023-06-22T15:27:54;9.32;;;7.93;;
36189;SDS011;22232;50.914;13.858;2023-06-22T15:30:22;9.27;;;7.07;;
36189;SDS011;22232;50.914;13.858;2023-06-22T15:32:49;8.07;;;7.28;;
36189;SDS011;22232;50.914;13.858;2023-06-22T15:35:17;8.68;;;7.13;;
36189;SDS011;22232;50.914;13.858;2023-06-22T15:37:45;8.68;;;7.40;;
36189;SDS011;22232;50.914;13.858;2023-06-22T15:40:13;8.95;;;7.22;;
36189;SDS011;22232;50.914;13.858;2023-06-22T15:42:40;8.60;;;7.65;;
36189;SDS011;22232;50.914;13.858;2023-06-22T15:45:08;8.48;;;7.00;;
36189;SDS011;22232;50.914;13.858;2023-06-22T15:47:36;9.00;;;7.45;;